TimePST,TemperatureF,Dew PointF,Humidity,Sea Level PressureIn,VisibilityMPH,Wind Direction,Wind SpeedMPH,Gust SpeedMPH,PrecipitationIn,Events,Conditions,WindDirDegrees,DateUTC
12:51 AM,30.0,16.0,56,30.17,10.0,South,3.5,-,N/A,,Clear,170,2013-12-06 08:51:00
1:51 AM,30.9,17.1,57,30.18,10.0,East,3.5,-,N/A,,Clear,90,2013-12-06 09:51:00
2:51 AM,28.9,16.0,58,30.19,10.0,Calm,Calm,-,N/A,,Clear,0,2013-12-06 10:51:00
3:51 AM,30.0,17.1,59,30.19,10.0,Calm,Calm,-,N/A,,Clear,0,2013-12-06 11:51:00
4:51 AM,28.0,16.0,61,30.19,10.0,ESE,3.5,-,N/A,,Clear,120,2013-12-06 12:51:00
5:51 AM,-9999,-9999,N/A,30.17,-9999.0,North,-9999.0,-,N/A,,Unknown,0,2013-12-06 13:51:00
5:53 AM,-9999,-9999,N/A,30.18,10.0,Calm,Calm,-,N/A,,Clear,0,2013-12-06 13:53:00
6:51 AM,-9999,-9999,N/A,30.18,10.0,Calm,Calm,-,N/A,,Clear,0,2013-12-06 14:51:00
7:51 AM,-9999,-9999,N/A,30.20,10.0,Calm,Calm,-,N/A,,Clear,0,2013-12-06 15:51:00
8:51 AM,-9999,-9999,N/A,30.20,10.0,Calm,Calm,-,N/A,,Clear,0,2013-12-06 16:51:00
9:13 AM,42.8,10.4,27,30.21,10.0,Calm,Calm,-,N/A,,Clear,0,2013-12-06 17:13:00
9:51 AM,46.9,10.9,23,30.24,10.0,NE,3.5,-,N/A,,Clear,50,2013-12-06 17:51:00
10:51 AM,50.0,8.1,18,30.23,10.0,Calm,Calm,-,N/A,,Clear,0,2013-12-06 18:51:00
11:51 AM,54.0,16.0,22,30.20,10.0,North,5.8,-,N/A,,Clear,350,2013-12-06 19:51:00
12:51 PM,55.9,21.0,26,30.18,10.0,North,5.8,-,N/A,,Clear,350,2013-12-06 20:51:00
1:51 PM,55.0,28.0,35,30.17,10.0,WNW,13.8,17.3,N/A,,Clear,300,2013-12-06 21:51:00
2:51 PM,54.0,28.9,38,30.15,10.0,WNW,10.4,26.5,N/A,,Scattered Clouds,300,2013-12-06 22:51:00
3:51 PM,53.1,30.0,41,30.15,10.0,WNW,10.4,-,N/A,,Mostly Cloudy,290,2013-12-06 23:51:00
4:51 PM,48.9,33.1,54,30.16,10.0,West,5.8,-,N/A,,Partly Cloudy,280,2013-12-07 00:51:00
5:51 PM,46.0,32.0,58,30.15,10.0,Calm,Calm,-,N/A,,Clear,0,2013-12-07 01:51:00
6:51 PM,42.1,30.9,65,30.16,10.0,South,3.5,-,N/A,,Clear,170,2013-12-07 02:51:00
7:51 PM,39.9,30.0,68,30.16,9.0,SSE,5.8,-,N/A,,Clear,160,2013-12-07 03:51:00
8:51 PM,37.0,28.9,73,30.15,8.0,SE,4.6,-,N/A,,Clear,130,2013-12-07 04:51:00
9:51 PM,39.9,30.9,70,30.17,10.0,SE,4.6,-,N/A,,Mostly Cloudy,140,2013-12-07 05:51:00
10:51 PM,44.1,33.1,65,30.16,10.0,SSE,4.6,-,N/A,,Overcast,150,2013-12-07 06:51:00
11:51 PM,44.1,34.0,68,30.15,10.0,SSE,3.5,-,0.00,,Overcast,150,2013-12-07 07:51:00